Terminal Aerodrome Forecast
Issued by NWS

Home | Current Version | Previous Version | Graphics & Text | Print | Product List | Glossary Off
Versions: 1 2 3 4 5 6 7 8 9 10 11 12

435
FTUS42 KMHX 271732
TAFISO
TAF
KISO 271732Z 2718/2818 15007KT P6SM SKC
     FM280900 VRB03KT 4SM BR FEW015
     FM281300 07005KT P6SM BKN050 OVC200
      AMD LTD TO CLD VIS AND WIND=

USA.gov is the U.S. government's official web portal to all federal, state and local government web resources and services.